Impacts TAF Board
For situational awareness. Not to be used for flight planning purposes.
IDs:

KPDX - Portland Intl Arpt, OR, US

Issued at 2156 UTC 26 Feb 2020
Updated at 2238 UTC 26 Feb 2020
Potential Impact None Slight Moderate High
Time2153Z 26/23Z 27/00Z 27/01Z 27/02Z 27/03Z 27/04Z 27/05Z 27/06Z 27/07Z 27/08Z 27/09Z 27/10Z 27/11Z>>
Type OBS PRVL PRVL PRVL PRVL PRVL PRVL PRVL PRVL PRVL PRVL PRVL PRVL PRVL
VIS 10 >6 >6 >6 >6 >6 >6 >6 >6 >6 >6 >6 >6 >6
CIG -- -- -- -- -- -- -- -- -- -- -- -- -- --
Cover SCT SCT SCT SCT SCT SCT SCT SCT SCT SCT SCT SCT SCT SCT
FltCat VFR VFR VFR VFR VFR VFR VFR VFR VFR VFR VFR VFR VFR VFR
WX -- -- -- -- -- -- -- -- -- -- -- -- -- --
WDir 80 80 80 310 310 310 310 310 310 310 310 310 310 310
WSpd 3 3 3 4 4 4 4 4 4 4 4 4 4 4
WGst -- -- -- -- -- -- -- -- -- -- -- -- -- --
Raw TAF
KPDX 262156Z 2622/2718 08003KT P6SM SCT026 SCT040 SCT250
  FM270100 31004KT P6SM SCT040
  FM271500 12002KT 2SM BR BKN015


Raw METAR
KPDX 262153Z 08003KT 10SM SCT026 SCT040 SCT250 12/05 A3053 RMK AO2 SLP339 T01220050
KPDX 262053Z VRB03KT 9SM FEW015 BKN025 11/06 A3054 RMK AO2 SLP343 T01110056 50000
KPDX 261953Z 36004KT 10SM FEW008 FEW012 OVC025 10/06 A3055 RMK AO2 SLP346 T01000061

METAR Board
Radar Display
Forecast Discussion
For situational awareness. Not to be used for flight planning purposes.